Time;durP1;ratioP1;P1;durP2;ratioP2;P2;SDS_P1;SDS_P2;PMS_P1;PMS_P2;Temp;Humidity;BMP_temperature;BMP_pressure;BME280_temperature;BME280_humidity;BME280_pressure;Samples;Min_cycle;Max_cycle;Signal;HPM_P1;HPM_P2
2022/05/23 00:04:33;;;;;;;6.68;1.00;;;;;;;15.71;42.18;97500.09;10134930;29;20052;-75
2022/05/23 00:09:55;;;;;;;1.70;0.80;;;;;;;15.63;42.36;97494.13;10122489;29;20048;-74
2022/05/23 00:15:15;;;;;;;1.88;0.85;;;;;;;15.60;42.56;97489.75;10135045;29;20381;-76
2022/05/23 00:20:36;;;;;;;4.22;0.95;;;;;;;15.54;42.68;97481.06;10122361;29;20041;-74
2022/05/23 00:25:57;;;;;;;2.70;0.77;;;;;;;15.50;42.95;97463.25;10119094;29;20053;-75
2022/05/23 00:31:18;;;;;;;4.60;0.73;;;;;;;15.38;43.34;97467.00;10121996;29;20056;-74
2022/05/23 00:36:38;;;;;;;2.28;0.80;;;;;;;15.34;43.36;97457.63;10121771;29;20475;-75
2022/05/23 00:48:08;;;;;;;4.10;0.95;;;;;;;15.17;43.92;97445.69;10134586;29;20045;-75
2022/05/23 00:53:58;;;;;;;3.30;0.85;;;;;;;15.10;44.22;97441.13;10125745;29;20056;-75
2022/05/23 01:00:58;;;;;;;3.28;0.85;;;;;;;15.00;44.71;97437.16;10116303;29;20049;-75
2022/05/23 01:06:19;;;;;;;3.92;0.70;;;;;;;14.91;44.59;97424.81;10135334;29;20044;-75
2022/05/23 01:12:10;;;;;;;2.80;1.10;;;;;;;14.83;44.72;97418.81;10125865;29;20048;-76
2022/05/23 01:34:11;;;;;;;2.60;0.80;;;;;;;14.48;45.95;97410.91;10142765;29;20403;-75
2022/05/23 01:39:42;;;;;;;2.78;0.93;;;;;;;14.39;45.80;97404.16;10129943;29;20041;-75
2022/05/23 01:45:33;;;;;;;6.47;1.27;;;;;;;14.26;46.05;97383.19;10132895;29;20060;-75
2022/05/23 01:51:36;;;;;;;3.08;1.02;;;;;;;14.18;46.75;97393.28;10126964;29;20127;-75
2022/05/23 01:57:30;;;;;;;3.33;1.20;;;;;;;14.07;46.78;97399.78;10132559;29;20135;-74
2022/05/23 02:03:51;;;;;;;5.80;1.07;;;;;;;13.96;47.82;97416.13;10120781;29;20060;-74
2022/05/23 02:09:46;;;;;;;3.35;1.20;;;;;;;13.91;48.14;97406.06;10115811;29;20052;-74
2022/05/23 02:15:46;;;;;;;3.75;1.00;;;;;;;13.83;47.93;97411.28;10122947;29;20052;-74
2022/05/23 02:21:39;;;;;;;1.98;0.98;;;;;;;13.77;48.64;97391.31;10114367;29;20391;-75
2022/05/23 02:27:09;;;;;;;2.47;0.73;;;;;;;13.68;48.31;97398.59;10127992;29;20103;-75
2022/05/23 02:33:07;;;;;;;3.42;0.90;;;;;;;13.58;48.46;97400.19;10121170;29;20052;-75
2022/05/23 02:39:03;;;;;;;2.72;0.88;;;;;;;13.46;49.44;97401.03;10112272;29;20049;-75
2022/05/23 02:44:54;;;;;;;3.75;1.38;;;;;;;13.42;49.08;97398.03;10120213;29;20060;-74
2022/05/23 02:50:53;;;;;;;2.97;1.05;;;;;;;13.43;49.58;97391.06;10130103;29;20053;-74
2022/05/23 02:56:47;;;;;;;4.00;1.10;;;;;;;13.37;49.97;97385.16;10125970;29;20045;-75
2022/05/23 03:11:24;;;;;;;8.68;2.58;;;;;;;13.28;49.92;97379.75;10137230;29;20080;-74
2022/05/23 03:17:16;;;;;;;11.90;5.22;;;;;;;13.20;50.56;97376.53;10117296;29;20052;-74
2022/05/23 03:30:10;;;;;;;34.47;15.30;;;;;;;13.14;51.36;97382.53;10123107;29;20113;-75
2022/05/23 03:35:43;;;;;;;17.13;7.43;;;;;;;13.14;50.50;97386.06;10110918;29;20134;-75
2022/05/23 03:41:08;;;;;;;31.27;13.07;;;;;;;13.20;51.01;97396.88;10109838;29;20487;-75
2022/05/23 03:46:30;;;;;;;33.30;13.68;;;;;;;13.26;51.04;97405.59;10096825;29;20052;-75
2022/05/23 03:52:21;;;;;;;16.70;6.32;;;;;;;13.29;51.11;97414.84;10107225;29;20052;-75
2022/05/23 04:06:11;;;;;;;17.03;5.93;;;;;;;13.50;51.54;97374.53;10083891;29;1506078;-78
2022/05/23 04:11:55;;;;;;;27.70;11.45;;;;;;;13.57;51.39;97376.31;10128609;29;20044;-75
2022/05/23 04:18:24;;;;;;;15.10;7.40;;;;;;;13.83;52.42;97380.41;10118231;29;20403;-75
2022/05/23 04:24:21;;;;;;;7.38;2.80;;;;;;;14.10;51.33;97388.03;10117984;29;20487;-75
2022/05/23 04:30:43;;;;;;;5.78;1.98;;;;;;;14.29;51.14;97390.34;10095382;29;20408;-79
2022/05/23 04:36:04;;;;;;;4.15;1.65;;;;;;;14.51;50.27;97392.78;10085582;29;20085;-78
2022/05/23 04:41:57;;;;;;;4.55;1.63;;;;;;;14.65;50.38;97392.69;10081951;29;20524;-78
2022/05/23 04:55:06;;;;;;;3.78;1.85;;;;;;;14.69;49.76;97385.19;10108748;29;20052;-78
2022/05/23 05:00:56;;;;;;;6.20;1.92;;;;;;;14.81;50.20;97387.81;10128490;29;20510;-78
2022/05/23 05:06:45;;;;;;;5.55;1.40;;;;;;;15.23;49.31;97371.38;10129642;29;20131;-80
2022/05/23 05:12:35;;;;;;;7.07;2.00;;;;;;;15.66;49.07;97369.06;10118813;29;20056;-79
2022/05/23 05:17:56;;;;;;;4.75;1.45;;;;;;;16.10;48.12;97357.44;10117907;29;20040;-78
2022/05/23 05:23:20;;;;;;;5.37;1.90;;;;;;;16.67;47.05;97343.44;10130820;29;20049;-79
2022/05/23 05:28:49;;;;;;;3.75;1.80;;;;;;;17.29;45.48;97341.47;10118383;29;20398;-77
2022/05/23 05:34:16;;;;;;;5.05;1.77;;;;;;;17.98;44.61;97337.44;10115742;29;20045;-76
2022/05/23 05:39:37;;;;;;;7.00;1.60;;;;;;;18.55;42.83;97333.56;10104263;29;20478;-84
2022/05/23 05:45:01;;;;;;;5.28;1.35;;;;;;;19.64;41.34;97333.06;10102166;29;20104;-84
2022/05/23 05:50:33;;;;;;;2.72;1.08;;;;;;;22.28;36.80;97331.34;10102122;29;20064;-82
2022/05/23 05:56:02;;;;;;;2.75;1.13;;;;;;;27.32;30.02;97324.00;10105649;29;20428;-82
2022/05/23 06:01:24;;;;;;;5.78;1.30;;;;;;;25.61;31.13;97333.53;10102144;29;20049;-80
2022/05/23 06:12:44;;;;;;;4.25;1.30;;;;;;;24.45;30.81;97349.44;10117529;29;20044;-76
2022/05/23 06:18:31;;;;;;;7.72;1.40;;;;;;;23.36;31.28;97327.09;10115516;29;20554;-81
2022/05/23 06:23:52;;;;;;;5.38;0.93;;;;;;;23.06;30.42;97316.75;10112901;29;20041;-81
2022/05/23 06:29:26;;;;;;;5.10;0.98;;;;;;;23.65;32.14;97311.03;10114466;29;20044;-76
2022/05/23 06:34:47;;;;;;;6.68;1.02;;;;;;;24.01;30.75;97321.28;10112317;29;20044;-84
2022/05/23 06:40:11;;;;;;;11.10;1.60;;;;;;;23.84;30.04;97314.75;10112289;29;20506;-82
2022/05/23 06:45:54;;;;;;;6.80;1.15;;;;;;;23.61;29.90;97305.97;10108655;29;20049;-78
2022/05/23 06:51:48;;;;;;;5.38;1.08;;;;;;;23.52;29.84;97295.91;10118654;29;20112;-82
2022/05/23 06:57:10;;;;;;;7.25;0.88;;;;;;;23.23;29.92;97297.03;10100874;29;20395;-77
2022/05/23 07:02:32;;;;;;;3.97;0.98;;;;;;;23.02;30.26;97298.94;10112059;29;20108;-81
2022/05/23 07:13:46;;;;;;;5.47;1.00;;;;;;;23.51;30.27;97303.00;10104357;29;20041;-86
2022/05/23 07:19:07;;;;;;;7.38;0.80;;;;;;;24.14;29.64;97289.31;10098422;29;20048;-77
2022/05/23 07:24:38;;;;;;;2.03;0.70;;;;;;;24.73;28.60;97297.53;10124054;29;20044;-77
2022/05/23 07:30:04;;;;;;;5.90;1.10;;;;;;;24.72;28.86;97302.53;10098992;29;20056;-75
2022/05/23 07:35:29;;;;;;;7.63;0.98;;;;;;;24.28;28.52;97297.97;10098715;29;20064;-74
2022/05/23 07:40:53;;;;;;;2.50;0.70;;;;;;;24.99;28.37;97299.75;10097980;29;20048;-74
2022/05/23 07:46:18;;;;;;;4.70;0.77;;;;;;;27.06;27.28;97299.78;10085975;29;20041;-74
2022/05/23 07:51:41;;;;;;;3.13;1.00;;;;;;;28.93;25.15;97291.09;10097458;29;20106;-76
2022/05/23 08:02:55;;;;;;;6.32;1.13;;;;;;;35.09;20.23;97292.66;10101779;29;20096;-76
2022/05/23 08:08:18;;;;;;;4.25;0.70;;;;;;;38.36;16.61;97295.09;10096915;29;20060;-78
2022/05/23 08:13:41;;;;;;;4.70;0.70;;;;;;;38.43;15.05;97291.88;10109158;29;20120;-76
2022/05/23 08:19:04;;;;;;;2.97;0.57;;;;;;;38.80;14.53;97279.00;10096654;29;20476;-78
2022/05/23 08:24:25;;;;;;;4.13;0.60;;;;;;;37.88;13.75;97280.03;10094341;29;20418;-76
2022/05/23 08:29:47;;;;;;;4.07;1.17;;;;;;;34.61;15.85;97284.22;10095258;29;20056;-78
2022/05/23 08:35:08;;;;;;;3.45;0.80;;;;;;;34.12;16.77;97277.22;10095810;29;20053;-77
2022/05/23 08:40:49;;;;;;;2.75;0.68;;;;;;;34.70;16.03;97288.25;10096064;29;20048;-80
2022/05/23 08:46:12;;;;;;;4.47;0.70;;;;;;;35.71;16.24;97274.31;10121590;29;20139;-78
2022/05/23 08:52:02;;;;;;;3.53;0.60;;;;;;;36.97;14.32;97262.47;10097911;29;20536;-79
2022/05/23 08:57:27;;;;;;;5.30;0.57;;;;;;;36.35;14.14;97278.97;10121289;29;20048;-78
2022/05/23 09:03:15;;;;;;;2.28;0.40;;;;;;;35.42;14.53;97266.06;10121003;29;20479;-80
2022/05/23 09:09:01;;;;;;;1.85;0.57;;;;;;;33.81;15.33;97268.81;10111339;29;20132;-80
2022/05/23 09:14:22;;;;;;;4.68;0.60;;;;;;;31.98;16.65;97259.59;10093211;29;20094;-79
2022/05/23 09:19:55;;;;;;;1.85;0.57;;;;;;;31.66;17.55;97246.66;10095282;29;20045;-79
2022/05/23 09:25:19;;;;;;;1.38;0.50;;;;;;;30.84;18.24;97241.25;10080722;29;20057;-82
2022/05/23 09:30:44;;;;;;;5.15;0.47;;;;;;;34.25;17.24;97242.75;10095154;29;20089;-83
2022/05/23 09:36:37;;;;;;;3.90;0.40;;;;;;;36.04;13.99;97235.97;10099058;29;20049;-81
2022/05/23 09:47:55;;;;;;;6.15;0.63;;;;;;;36.95;13.75;97219.63;10092132;29;20052;-85
2022/05/23 09:53:46;;;;;;;3.72;0.50;;;;;;;37.76;12.53;97199.81;10103270;29;20045;-85
2022/05/23 09:59:32;;;;;;;2.30;0.55;;;;;;;34.84;14.41;97208.06;10113252;29;20048;-81
2022/05/23 10:04:55;;;;;;;3.10;0.65;;;;;;;33.85;15.01;97196.31;10111008;29;20068;-82
2022/05/23 10:10:30;;;;;;;2.50;0.68;;;;;;;34.44;15.58;97191.41;10096853;29;20067;-82
2022/05/23 10:15:59;;;;;;;1.88;0.52;;;;;;;34.50;15.45;97183.97;10112295;29;20049;-82
2022/05/23 10:21:38;;;;;;;3.97;0.68;;;;;;;37.22;14.35;97168.94;10125690;29;20052;-82
2022/05/23 10:27:06;;;;;;;2.17;0.40;;;;;;;41.43;10.91;97159.78;10111389;29;20036;-81
2022/05/23 10:32:35;;;;;;;4.55;0.40;;;;;;;41.67;10.06;97148.66;10123142;29;20097;-79
2022/05/23 10:44:14;;;;;;;1.35;0.40;;;;;;;38.18;11.58;97115.34;10101221;29;20048;-80
2022/05/23 10:49:51;;;;;;;2.03;0.50;;;;;;;38.17;12.83;97111.03;10162477;29;20044;-79
2022/05/23 10:55:28;;;;;;;4.82;0.75;;;;;;;39.73;11.04;97080.47;10159190;29;20447;-81
2022/05/23 11:01:14;;;;;;;2.25;0.40;;;;;;;36.37;13.46;97078.38;10134926;29;20059;-79
2022/05/23 11:06:55;;;;;;;3.30;0.52;;;;;;;32.84;16.43;97073.09;10132864;29;20506;-81
2022/05/23 11:12:31;;;;;;;4.03;0.60;;;;;;;30.96;17.55;97054.41;10124731;29;20056;-81
2022/05/23 11:17:55;;;;;;;1.55;0.40;;;;;;;30.06;18.69;97029.06;10111109;29;20108;-75
2022/05/23 11:23:37;;;;;;;2.28;0.63;;;;;;;28.60;20.73;97023.75;10137151;29;20045;-75
2022/05/23 11:35:02;;;;;;;3.50;0.57;;;;;;;28.21;21.91;96995.59;10122260;29;20052;-75
2022/05/23 11:40:26;;;;;;;2.55;0.50;;;;;;;28.40;21.96;96987.47;10112287;29;20069;-75
2022/05/23 11:46:04;;;;;;;2.10;0.52;;;;;;;27.48;22.34;96962.78;10123029;29;20044;-75
2022/05/23 11:51:36;;;;;;;2.47;0.60;;;;;;;26.87;22.62;96969.13;10101273;29;20056;-75
2022/05/23 11:56:59;;;;;;;2.80;0.55;;;;;;;26.96;22.41;96987.66;10123429;29;20048;-76
2022/05/23 12:02:21;;;;;;;2.80;0.50;;;;;;;27.17;22.57;96996.78;10136402;29;20063;-75
2022/05/23 12:07:44;;;;;;;2.53;0.70;;;;;;;27.01;22.13;96989.03;10110292;29;20083;-75
2022/05/23 12:13:24;;;;;;;;;;;;;;;26.66;23.18;96973.63;10123170;29;20045;-75
2022/05/23 12:18:47;;;;;;;2.30;0.50;;;;;;;26.65;22.71;96955.03;10122673;29;19967;-76
2022/05/23 12:24:23;;;;;;;5.38;0.50;;;;;;;26.14;23.67;96973.22;10109284;29;20479;-75
2022/05/23 12:30:16;;;;;;;1.33;0.40;;;;;;;25.77;24.12;96940.56;10124587;29;20510;-75
2022/05/23 12:35:48;;;;;;;2.75;0.40;;;;;;;25.69;24.37;96947.00;10121677;29;20055;-75
2022/05/23 12:41:17;;;;;;;3.17;0.60;;;;;;;25.44;24.71;96951.41;10096259;29;20471;-75
2022/05/23 12:46:57;;;;;;;3.83;0.68;;;;;;;25.03;25.70;96932.25;10121759;29;20056;-75
2022/05/23 12:52:35;;;;;;;1.85;0.50;;;;;;;25.24;25.41;96935.03;10121502;29;20503;-75
2022/05/23 12:58:33;;;;;;;4.20;0.70;;;;;;;25.77;25.19;96931.97;10121149;29;20052;-75
2022/05/23 13:04:12;;;;;;;2.72;0.63;;;;;;;25.80;25.07;96922.69;10108359;29;20053;-75
2022/05/23 13:09:44;;;;;;;3.22;0.73;;;;;;;26.03;24.61;96925.41;10122324;29;20518;-77
2022/05/23 13:15:07;;;;;;;2.45;0.40;;;;;;;25.71;24.75;96909.16;10114020;29;20059;-78
2022/05/23 13:26:10;;;;;;;2.55;0.50;;;;;;;24.81;25.71;96926.56;10117562;29;20072;-75
2022/05/23 13:31:57;;;;;;;1.77;0.50;;;;;;;24.68;25.88;96916.56;10130095;29;20057;-75
2022/05/23 13:37:26;;;;;;;2.00;0.63;;;;;;;24.67;25.72;96918.72;10129624;29;20132;-75
2022/05/23 13:42:47;;;;;;;2.67;0.50;;;;;;;24.56;26.09;96900.19;10111198;29;20045;-76
2022/05/23 13:48:17;;;;;;;5.55;0.47;;;;;;;24.65;26.42;96875.94;10114304;29;20128;-77
2022/05/23 13:53:49;;;;;;;2.35;0.50;;;;;;;24.39;26.54;96896.63;10063657;29;20063;-76
2022/05/23 13:59:14;;;;;;;1.98;0.50;;;;;;;24.32;27.32;96891.63;10122359;29;20049;-74
2022/05/23 14:04:38;;;;;;;2.40;0.50;;;;;;;24.28;27.46;96875.94;10126838;29;20048;-73
2022/05/23 14:10:02;;;;;;;3.10;0.57;;;;;;;24.19;27.66;96880.19;10104190;29;20506;-74
2022/05/23 14:15:27;;;;;;;3.47;0.40;;;;;;;23.95;28.25;96891.59;10139545;29;20513;-74
2022/05/23 14:20:50;;;;;;;1.27;0.38;;;;;;;23.82;28.56;96867.34;10102581;29;20120;-80
2022/05/23 14:26:19;;;;;;;1.92;0.50;;;;;;;23.81;28.59;96860.94;10126341;29;20044;-75
2022/05/23 14:31:47;;;;;;;2.92;0.50;;;;;;;23.88;28.66;96864.50;10120932;29;20045;-79
2022/05/23 14:37:09;;;;;;;4.30;0.70;;;;;;;24.03;28.40;96848.13;10114779;29;20056;-75
2022/05/23 14:42:35;;;;;;;3.08;0.40;;;;;;;24.03;28.41;96851.72;10156539;29;20040;-77
2022/05/23 14:56:19;;;;;;;1.40;0.47;;;;;;;23.58;28.64;96845.91;10587342;27;1446621;-74
2022/05/23 15:01:41;;;;;;;;;;;;;;;23.57;28.79;96833.09;10559174;28;20054;-75
2022/05/23 15:07:02;;;;;;;2.83;0.70;;;;;;;23.65;28.71;96821.75;10548403;28;20013;-76
2022/05/23 15:12:25;;;;;;;1.63;0.40;;;;;;;23.82;28.23;96838.84;10557244;28;20040;-75
2022/05/23 15:17:46;;;;;;;2.58;0.45;;;;;;;24.09;27.76;96842.44;10586405;28;20047;-76
2022/05/23 15:23:10;;;;;;;2.33;0.70;;;;;;;24.31;27.12;96833.16;10574330;28;20115;-75
2022/05/23 15:28:32;;;;;;;2.53;0.32;;;;;;;24.50;27.16;96820.31;10600266;28;20044;-75
2022/05/23 15:33:53;;;;;;;1.30;0.30;;;;;;;24.94;26.51;96830.19;10600601;28;20040;-77
2022/05/23 15:39:19;;;;;;;2.55;0.38;;;;;;;24.98;26.24;96822.31;10571291;28;20043;-76
2022/05/23 15:44:40;;;;;;;4.63;0.50;;;;;;;25.26;26.20;96809.38;10589117;28;20063;-74
2022/05/23 15:50:02;;;;;;;1.02;0.30;;;;;;;25.16;26.11;96792.28;10551896;28;20051;-78
2022/05/23 15:55:24;;;;;;;3.65;0.50;;;;;;;24.86;26.68;96790.25;10524554;28;20570;-75
2022/05/23 16:00:46;;;;;;;1.60;0.50;;;;;;;24.63;26.88;96789.63;10542247;28;20118;-76
2022/05/23 16:06:07;;;;;;;2.17;0.30;;;;;;;24.25;27.58;96791.81;10536733;28;20104;-77
2022/05/23 16:11:35;;;;;;;1.08;0.30;;;;;;;23.97;28.44;96789.72;10508387;28;20398;-76
2022/05/23 16:16:59;;;;;;;1.75;0.40;;;;;;;23.70;29.06;96783.28;10482053;28;20036;-74
2022/05/23 16:22:23;;;;;;;5.10;0.60;;;;;;;23.46;29.89;96774.00;10499086;28;20044;-75
2022/05/23 16:27:44;;;;;;;4.90;0.60;;;;;;;23.54;30.09;96771.13;10526269;28;20443;-75
2022/05/23 16:39:10;;;;;;;1.95;0.40;;;;;;;23.07;30.44;96760.38;10511376;28;20128;-79
2022/05/23 16:44:31;;;;;;;3.00;0.47;;;;;;;22.95;31.07;96748.94;10508359;28;20113;-74
2022/05/23 16:49:53;;;;;;;4.10;0.80;;;;;;;23.02;31.51;96761.78;10501771;28;20032;-75
2022/05/23 16:55:15;;;;;;;2.17;0.40;;;;;;;22.95;32.11;96763.16;10519986;28;20056;-74
2022/05/23 17:00:38;;;;;;;3.70;0.50;;;;;;;22.64;32.71;96762.31;10521889;28;20816;-77
2022/05/23 17:05:59;;;;;;;3.78;0.50;;;;;;;22.29;32.96;96767.09;10482643;28;20169;-75
2022/05/23 17:11:21;;;;;;;3.25;0.30;;;;;;;22.25;33.10;96758.56;10524941;28;20123;-76
2022/05/23 17:17:04;;;;;;;2.20;0.60;;;;;;;22.10;33.09;96743.56;10504639;28;20040;-77
2022/05/23 17:22:26;;;;;;;1.58;0.50;;;;;;;21.99;32.94;96730.66;10536037;28;20052;-78
2022/05/23 17:27:47;;;;;;;1.88;0.40;;;;;;;21.89;33.29;96717.09;10508828;28;20048;-74
2022/05/23 17:33:09;;;;;;;4.93;0.40;;;;;;;21.71;33.54;96731.16;10497051;28;20044;-75
2022/05/23 17:38:30;;;;;;;2.78;0.88;;;;;;;21.61;33.96;96739.59;10492272;28;20036;-76
2022/05/23 17:43:51;;;;;;;2.13;0.50;;;;;;;21.50;34.23;96730.28;10508953;28;20490;-74
2022/05/23 17:49:11;;;;;;;4.22;0.57;;;;;;;21.48;34.68;96721.03;10494780;28;20485;-75
2022/05/23 17:54:32;;;;;;;3.15;0.50;;;;;;;21.36;34.72;96713.84;10482766;28;20112;-76
2022/05/23 17:59:53;;;;;;;3.33;0.47;;;;;;;21.32;34.89;96707.41;10511890;28;20032;-84
2022/05/23 18:05:15;;;;;;;1.83;0.50;;;;;;;21.26;35.11;96698.84;10511640;28;20128;-85
2022/05/23 18:10:37;;;;;;;1.45;0.47;;;;;;;21.12;35.40;96693.72;10509789;28;20044;-84
2022/05/23 18:21:37;;;;;;;4.82;0.57;;;;;;;20.94;36.72;96699.94;10494926;28;20078;-77
2022/05/23 18:27:05;;;;;;;5.53;0.47;;;;;;;20.78;36.96;96694.81;10456079;28;20493;-79
2022/05/23 18:32:27;;;;;;;2.15;0.73;;;;;;;20.69;37.01;96686.91;10508056;28;20059;-77
2022/05/23 18:37:47;;;;;;;2.70;0.60;;;;;;;20.59;37.69;96676.16;10480161;28;20040;-75
2022/05/23 18:43:10;;;;;;;2.10;0.50;;;;;;;20.45;38.55;96679.53;10466343;28;20048;-76
2022/05/23 18:54:15;;;;;;;5.03;1.15;;;;;;;20.20;38.99;96610.50;10507394;28;20486;-74
2022/05/23 18:59:35;;;;;;;3.05;0.60;;;;;;;20.16;40.29;96618.94;10521007;28;20044;-74
2022/05/23 19:04:56;;;;;;;2.63;0.90;;;;;;;20.09;40.12;96602.59;10535291;28;20055;-75
2022/05/23 19:10:17;;;;;;;1.98;0.52;;;;;;;20.03;40.19;96611.72;10504132;28;20040;-76
2022/05/23 19:15:38;;;;;;;1.98;0.98;;;;;;;19.99;40.60;96620.88;10466802;28;20037;-76
2022/05/23 19:21:00;;;;;;;3.15;0.80;;;;;;;20.04;40.84;96644.28;10512757;28;20044;-76
2022/05/23 19:26:21;;;;;;;1.58;0.60;;;;;;;20.02;41.14;96675.44;10496185;28;20044;-76
2022/05/23 19:31:42;;;;;;;2.63;0.70;;;;;;;20.02;41.02;96701.63;10516500;28;20048;-75
2022/05/23 19:37:04;;;;;;;3.10;0.70;;;;;;;20.05;41.17;96718.66;10505350;28;20047;-75
2022/05/23 19:42:26;;;;;;;3.70;0.85;;;;;;;20.09;40.86;96730.78;10486205;28;20094;-75
2022/05/23 19:47:59;;;;;;;2.40;0.80;;;;;;;20.14;41.01;96749.25;10494831;28;20048;-76
2022/05/23 19:53:20;;;;;;;3.53;0.80;;;;;;;20.07;40.81;96767.53;10510867;28;20048;-76
2022/05/23 19:58:40;;;;;;;3.75;0.73;;;;;;;20.09;40.89;96773.25;10483679;28;20398;-75
2022/05/23 20:09:58;;;;;;;2.65;0.80;;;;;;;20.14;41.28;96794.56;10452123;28;20137;-74
2022/05/23 20:15:22;;;;;;;3.17;0.82;;;;;;;20.19;41.12;96779.06;10509682;28;20489;-75
2022/05/23 20:20:45;;;;;;;2.17;0.60;;;;;;;20.23;40.88;96779.13;10529862;28;20040;-74
2022/05/23 20:26:06;;;;;;;2.10;0.70;;;;;;;20.12;41.05;96769.03;10529229;28;20052;-75
2022/05/23 20:31:27;;;;;;;8.68;0.85;;;;;;;20.00;41.64;96774.53;10529112;28;20097;-75
2022/05/23 20:36:48;;;;;;;3.78;1.15;;;;;;;20.06;41.43;96771.06;10500333;28;20051;-75
2022/05/23 20:42:08;;;;;;;3.97;0.65;;;;;;;19.96;41.98;96768.78;10500771;28;20086;-75
2022/05/23 20:47:36;;;;;;;2.78;0.98;;;;;;;19.89;42.21;96770.84;10529066;28;20470;-75
2022/05/23 20:52:56;;;;;;;4.93;0.90;;;;;;;19.85;42.09;96758.72;10513729;28;20051;-77
2022/05/23 20:58:17;;;;;;;5.78;0.98;;;;;;;19.83;42.44;96770.72;10513677;28;20043;-76
2022/05/23 21:03:38;;;;;;;6.45;0.90;;;;;;;19.83;42.37;96772.84;10528038;28;20040;-76
2022/05/23 21:08:59;;;;;;;4.85;0.90;;;;;;;19.78;42.36;96766.38;10499331;28;20040;-75
2022/05/23 21:14:28;;;;;;;3.13;0.75;;;;;;;19.71;42.85;96762.75;10527060;28;20573;-76
2022/05/23 21:19:54;;;;;;;2.17;0.73;;;;;;;19.59;42.96;96762.56;10541065;28;20056;-76
2022/05/23 21:25:19;;;;;;;1.65;0.75;;;;;;;19.44;42.86;96752.38;10526962;28;20043;-76
2022/05/23 21:30:41;;;;;;;7.22;1.30;;;;;;;19.28;43.51;96746.44;10526992;28;20109;-75
2022/05/23 21:36:03;;;;;;;6.03;1.10;;;;;;;19.12;44.28;96724.97;10498593;28;20040;-76
2022/05/23 21:47:03;;;;;;;2.90;0.93;;;;;;;18.86;45.00;96699.72;10540104;28;20044;-77
2022/05/23 21:52:24;;;;;;;2.95;1.25;;;;;;;18.88;45.38;96694.09;10511586;28;20469;-77
2022/05/23 21:57:45;;;;;;;2.75;1.10;;;;;;;18.83;45.75;96667.19;10511367;28;20048;-76
2022/05/23 22:03:06;;;;;;;3.30;1.13;;;;;;;18.77;46.13;96655.03;10524608;28;20397;-76
2022/05/23 22:08:27;;;;;;;2.80;1.10;;;;;;;18.64;47.02;96645.59;10511382;28;20101;-75
2022/05/23 22:13:49;;;;;;;5.88;1.20;;;;;;;18.65;46.74;96646.34;10524695;28;20075;-75
2022/05/23 22:19:12;;;;;;;4.43;1.10;;;;;;;18.61;47.01;96644.09;10525038;28;20491;-76
2022/05/23 22:24:34;;;;;;;2.67;0.80;;;;;;;18.56;47.32;96654.63;10469072;28;20040;-76
2022/05/23 22:29:55;;;;;;;5.28;1.13;;;;;;;18.55;47.51;96641.19;10455372;28;20048;-75
2022/05/23 22:35:16;;;;;;;3.33;1.10;;;;;;;18.46;47.68;96620.53;10492497;28;20405;-75
2022/05/23 22:40:36;;;;;;;3.85;1.10;;;;;;;18.46;47.83;96594.38;10493921;28;20481;-76
2022/05/23 22:45:57;;;;;;;5.13;1.10;;;;;;;18.33;49.13;96582.13;10478373;28;20055;-75
2022/05/23 22:51:17;;;;;;;3.25;1.02;;;;;;;18.24;48.54;96584.09;10492778;28;20044;-76
2022/05/23 22:56:38;;;;;;;5.85;1.30;;;;;;;18.30;48.93;96623.03;10481092;28;20121;-77
2022/05/23 23:01:59;;;;;;;5.03;1.30;;;;;;;18.41;48.72;96615.47;10480257;28;20036;-76
2022/05/23 23:07:20;;;;;;;5.10;1.33;;;;;;;18.39;48.96;96606.97;10491025;28;20040;-76
2022/05/23 23:12:41;;;;;;;4.63;1.38;;;;;;;18.42;48.96;96620.44;10493567;28;20052;-78
2022/05/23 23:18:08;;;;;;;3.55;1.25;;;;;;;18.45;49.29;96618.38;10492240;28;20055;-77
2022/05/23 23:23:28;;;;;;;4.38;1.00;;;;;;;18.48;49.12;96617.03;10497663;28;20409;-76
2022/05/23 23:28:49;;;;;;;2.67;1.10;;;;;;;18.50;49.52;96619.88;10531210;28;20093;-75
2022/05/23 23:39:49;;;;;;;4.07;1.50;;;;;;;18.39;49.29;96612.63;10530924;28;20036;-76
2022/05/23 23:45:10;;;;;;;2.90;1.15;;;;;;;18.47;49.83;96636.09;10530939;28;20048;-75
2022/05/23 23:50:32;;;;;;;5.88;1.48;;;;;;;18.57;49.78;96641.94;10530430;28;20036;-75
2022/05/23 23:55:53;;;;;;;4.88;1.52;;;;;;;18.58;49.52;96642.66;10502893;28;20052;-75
